createdAt,value
2022-09-29T00:00:42.021Z,4.13
2022-09-29T00:03:43.968Z,4.93
2022-09-29T00:06:46.023Z,4.80
2022-09-29T00:09:47.981Z,5.05
2022-09-29T00:12:50.164Z,5.30
2022-09-29T00:15:59.558Z,6.87
2022-09-29T00:19:01.551Z,6.00
2022-09-29T00:22:03.536Z,6.30
2022-09-29T00:25:05.824Z,6.50
2022-09-29T00:28:07.739Z,5.83
2022-09-29T00:31:10.937Z,5.93
2022-09-29T00:34:13.664Z,5.88
2022-09-29T00:37:15.600Z,5.43
2022-09-29T00:40:17.647Z,4.67
2022-09-29T00:43:21.538Z,5.53
2022-09-29T00:46:26.283Z,4.63
2022-09-29T00:49:34.187Z,4.85
2022-09-29T00:52:37.931Z,5.22
2022-09-29T00:55:43.149Z,5.37
2022-09-29T00:58:54.710Z,5.17
2022-09-29T01:01:56.755Z,4.18
2022-09-29T01:04:59.563Z,4.60
2022-09-29T01:08:06.107Z,5.20
2022-09-29T01:11:10.102Z,5.53
2022-09-29T01:14:12.208Z,5.40
2022-09-29T01:17:14.308Z,5.68
2022-09-29T01:20:18.971Z,5.57
2022-09-29T01:23:30.013Z,5.30
2022-09-29T01:26:50.662Z,5.23
2022-09-29T01:29:55.503Z,5.10
2022-09-29T01:33:16.121Z,4.93
2022-09-29T01:36:17.999Z,5.85
2022-09-29T01:39:25.707Z,4.82
2022-09-29T01:42:32.562Z,5.83
2022-09-29T01:45:37.574Z,5.47
2022-09-29T01:48:42.308Z,5.60
2022-09-29T01:51:49.990Z,5.05
2022-09-29T01:55:02.379Z,5.60
2022-09-29T01:58:09.468Z,4.83
2022-09-29T02:01:13.118Z,5.85
2022-09-29T02:04:22.178Z,6.78
2022-09-29T02:07:31.131Z,5.05
2022-09-29T02:10:34.836Z,6.38
2022-09-29T02:13:42.040Z,5.03
2022-09-29T02:16:46.982Z,5.55
2022-09-29T02:19:51.153Z,5.82
2022-09-29T02:22:53.126Z,5.82
2022-09-29T02:25:57.005Z,7.07
2022-09-29T02:28:59.259Z,6.47
2022-09-29T02:32:02.970Z,6.35
2022-09-29T02:35:06.721Z,6.97
2022-09-29T02:38:17.351Z,7.93
2022-09-29T02:41:26.771Z,7.73
2022-09-29T02:44:28.712Z,8.47
2022-09-29T02:47:31.440Z,7.82
2022-09-29T02:50:46.054Z,9.70
2022-09-29T02:53:55.809Z,10.73
2022-09-29T02:57:17.813Z,9.47
2022-09-29T03:00:19.978Z,9.10
2022-09-29T03:03:21.985Z,9.88
2022-09-29T03:06:24.033Z,9.77
2022-09-29T03:09:25.983Z,10.57
2022-09-29T03:12:28.830Z,9.10
2022-09-29T03:15:30.738Z,9.10
2022-09-29T03:18:32.685Z,10.38
2022-09-29T03:21:35.550Z,10.95
2022-09-29T03:24:37.585Z,9.68
2022-09-29T03:27:39.539Z,10.47
2022-09-29T03:30:41.466Z,11.00
2022-09-29T03:33:43.760Z,9.50
2022-09-29T03:36:45.731Z,9.35
2022-09-29T03:39:47.639Z,11.20
2022-09-29T03:42:49.543Z,10.93
2022-09-29T03:45:52.574Z,9.97
2022-09-29T03:48:54.779Z,11.45
2022-09-29T03:51:56.708Z,16.20
2022-09-29T03:54:58.635Z,13.60
2022-09-29T03:58:00.554Z,11.43
2022-09-29T04:01:02.568Z,13.70
2022-09-29T04:04:05.704Z,18.52
2022-09-29T04:07:07.672Z,12.35
2022-09-29T04:10:09.721Z,12.20
2022-09-29T04:13:11.745Z,12.17
2022-09-29T04:16:13.729Z,12.90
2022-09-29T04:19:15.739Z,12.27
2022-09-29T04:22:20.979Z,11.75
2022-09-29T04:25:22.997Z,12.50
2022-09-29T04:28:25.421Z,11.73
2022-09-29T04:31:27.438Z,13.17
2022-09-29T04:34:29.427Z,11.48
2022-09-29T04:37:31.631Z,10.98
2022-09-29T04:40:33.962Z,11.27
2022-09-29T04:43:35.991Z,13.33
2022-09-29T04:46:37.920Z,15.30
2022-09-29T04:49:40.001Z,14.35
2022-09-29T04:52:45.035Z,13.55
2022-09-29T04:55:47.008Z,13.73
2022-09-29T04:58:48.962Z,11.10
2022-09-29T05:01:51.079Z,11.23
2022-09-29T05:04:53.165Z,11.73
2022-09-29T05:07:55.156Z,12.52
2022-09-29T05:10:57.392Z,11.18
2022-09-29T05:13:59.437Z,14.60
2022-09-29T05:17:01.528Z,12.50
2022-09-29T05:20:03.847Z,12.27
2022-09-29T05:23:10.423Z,13.60
2022-09-29T05:26:13.488Z,20.15
2022-09-29T05:29:15.545Z,17.43
2022-09-29T05:32:18.057Z,12.40
2022-09-29T05:35:20.208Z,12.10
2022-09-29T05:38:23.281Z,11.02
2022-09-29T05:41:25.603Z,10.10
2022-09-29T05:44:28.105Z,12.83
2022-09-29T05:47:30.190Z,10.60
2022-09-29T05:50:33.105Z,10.57
2022-09-29T05:53:35.380Z,9.88
2022-09-29T05:56:40.685Z,9.98
2022-09-29T05:59:57.865Z,12.10
2022-09-29T06:03:02.335Z,15.17
2022-09-29T06:06:14.441Z,20.73
2022-09-29T06:09:16.684Z,22.58
2022-09-29T06:12:21.647Z,22.67
2022-09-29T06:15:24.110Z,16.77
2022-09-29T06:18:26.234Z,14.30
2022-09-29T06:21:29.070Z,12.75
2022-09-29T06:24:31.021Z,11.43
2022-09-29T06:27:33.009Z,11.70
2022-09-29T06:30:35.184Z,11.03
2022-09-29T06:33:37.516Z,11.50
2022-09-29T06:37:02.419Z,11.20
2022-09-29T06:40:08.839Z,9.90
2022-09-29T06:43:13.285Z,8.70
2022-09-29T06:46:15.307Z,9.60
2022-09-29T06:49:18.894Z,8.53
2022-09-29T06:52:21.680Z,10.98
2022-09-29T06:55:23.921Z,9.38
2022-09-29T06:58:26.445Z,9.82
2022-09-29T07:01:28.535Z,9.17
2022-09-29T07:04:30.598Z,10.80
2022-09-29T07:07:32.644Z,10.05
2022-09-29T07:10:34.718Z,12.15
2022-09-29T07:13:37.386Z,9.65
2022-09-29T07:16:39.477Z,8.20
2022-09-29T07:19:41.575Z,9.40
2022-09-29T07:22:46.798Z,8.65
2022-09-29T07:25:51.911Z,8.82
2022-09-29T07:28:54.134Z,9.20
2022-09-29T07:31:56.185Z,9.60
2022-09-29T07:34:59.668Z,7.80
2022-09-29T07:38:01.915Z,7.07
2022-09-29T07:41:06.606Z,7.97
2022-09-29T07:44:09.053Z,8.00
2022-09-29T07:47:11.187Z,8.20
2022-09-29T07:50:18.634Z,8.07
2022-09-29T07:53:22.805Z,8.90
2022-09-29T07:56:25.113Z,9.95
2022-09-29T07:59:27.777Z,10.35
2022-09-29T08:02:29.952Z,13.47
2022-09-29T08:05:33.743Z,10.17
2022-09-29T08:08:37.276Z,9.43
2022-09-29T08:11:40.397Z,9.15
2022-09-29T08:14:44.330Z,12.43
2022-09-29T08:17:46.514Z,16.33
2022-09-29T08:20:48.597Z,9.83
2022-09-29T08:23:50.657Z,9.30
2022-09-29T08:26:52.639Z,10.25
2022-09-29T08:29:54.650Z,10.27
2022-09-29T08:32:56.930Z,10.40
2022-09-29T08:35:59.097Z,9.90
2022-09-29T08:39:01.167Z,11.70
2022-09-29T08:42:11.802Z,10.70
2022-09-29T08:45:16.674Z,11.38
2022-09-29T08:48:23.781Z,10.10
2022-09-29T08:51:36.756Z,11.03
2022-09-29T08:54:48.328Z,10.48
2022-09-29T08:57:53.987Z,10.48
2022-09-29T09:01:19.334Z,10.23
2022-09-29T09:04:24.158Z,9.10
2022-09-29T09:07:40.822Z,9.13
2022-09-29T09:10:47.574Z,9.18
2022-09-29T09:14:13.121Z,7.45
2022-09-29T09:17:36.387Z,7.13
2022-09-29T09:20:58.603Z,8.30
2022-09-29T09:24:15.678Z,7.93
2022-09-29T09:27:22.840Z,6.70
2022-09-29T09:30:31.040Z,7.57
2022-09-29T09:34:02.959Z,8.73
2022-09-29T09:37:20.563Z,10.17
2022-09-29T09:40:27.497Z,8.97
2022-09-29T09:43:40.483Z,7.00
2022-09-29T09:46:50.232Z,7.47
2022-09-29T09:50:11.101Z,6.38
2022-09-29T09:53:21.302Z,6.93
2022-09-29T09:56:26.500Z,6.60
2022-09-29T09:59:31.342Z,6.15
2022-09-29T10:02:33.616Z,6.07
2022-09-29T10:05:38.651Z,7.40
2022-09-29T10:08:42.501Z,7.83
2022-09-29T10:11:45.268Z,7.07
2022-09-29T10:14:57.852Z,7.35
2022-09-29T10:18:15.411Z,7.68
2022-09-29T10:21:23.710Z,8.95
2022-09-29T10:24:31.011Z,7.93
2022-09-29T10:27:33.338Z,7.50
2022-09-29T10:30:35.860Z,7.97
2022-09-29T10:33:37.950Z,6.53
2022-09-29T10:36:52.692Z,6.90
2022-09-29T10:40:16.422Z,7.93
2022-09-29T10:43:26.979Z,8.30
2022-09-29T10:46:39.354Z,7.93
2022-09-29T10:49:41.426Z,7.55
2022-09-29T10:52:46.303Z,7.30
2022-09-29T10:55:53.474Z,7.40
2022-09-29T10:59:01.769Z,6.40
2022-09-29T11:02:10.526Z,7.40
2022-09-29T11:05:20.512Z,7.32
2022-09-29T11:08:26.215Z,6.78
2022-09-29T11:11:32.371Z,7.00
2022-09-29T11:14:37.334Z,6.20
2022-09-29T11:17:39.963Z,6.80
2022-09-29T11:20:42.379Z,6.13
2022-09-29T11:23:44.408Z,5.00
2022-09-29T11:26:52.166Z,6.70
2022-09-29T11:29:57.009Z,5.27
2022-09-29T11:33:07.931Z,5.20
2022-09-29T11:36:16.502Z,4.13
2022-09-29T11:39:34.965Z,4.07
2022-09-29T11:42:52.893Z,4.23
2022-09-29T11:46:13.372Z,4.40
2022-09-29T11:49:18.571Z,5.18
2022-09-29T11:52:23.547Z,4.50
2022-09-29T11:55:29.794Z,5.03
2022-09-29T11:58:39.148Z,4.93
2022-09-29T12:01:47.013Z,5.17
2022-09-29T12:05:05.454Z,5.60
2022-09-29T12:08:24.906Z,5.03
2022-09-29T12:11:47.538Z,5.93
2022-09-29T12:14:53.237Z,4.77
2022-09-29T12:17:59.400Z,4.80
2022-09-29T12:21:01.821Z,4.22
2022-09-29T12:24:06.026Z,4.43
2022-09-29T12:27:10.673Z,5.22
2022-09-29T12:30:30.310Z,4.40
2022-09-29T12:33:39.378Z,4.63
2022-09-29T12:36:46.074Z,4.65
2022-09-29T12:39:57.157Z,3.97
2022-09-29T12:43:02.713Z,3.72
2022-09-29T12:46:25.247Z,4.37
2022-09-29T12:49:38.766Z,4.87
2022-09-29T12:52:55.380Z,4.60
2022-09-29T12:55:58.776Z,4.30
2022-09-29T12:59:04.678Z,3.65
2022-09-29T13:02:31.834Z,4.37
2022-09-29T13:05:52.475Z,4.10
2022-09-29T13:09:02.942Z,3.30
2022-09-29T13:12:10.884Z,3.95
2022-09-29T13:15:31.030Z,4.65
2022-09-29T13:18:49.036Z,2.90
2022-09-29T13:22:14.073Z,2.63
2022-09-29T13:25:34.739Z,3.00
2022-09-29T13:28:41.224Z,2.75
2022-09-29T13:31:44.127Z,2.80
2022-09-29T13:34:47.987Z,2.63
2022-09-29T13:37:54.874Z,3.33
2022-09-29T13:41:12.404Z,2.83
2022-09-29T13:44:25.242Z,3.08
2022-09-29T13:47:31.705Z,3.30
2022-09-29T13:50:39.819Z,3.23
2022-09-29T13:53:41.779Z,2.80
2022-09-29T13:56:47.039Z,3.53
2022-09-29T13:59:55.148Z,2.50
2022-09-29T14:03:02.061Z,2.53
2022-09-29T14:06:39.604Z,3.23
2022-09-29T14:09:45.119Z,3.13
2022-09-29T14:12:53.618Z,3.13
2022-09-29T14:15:58.784Z,4.45
2022-09-29T14:19:15.915Z,3.67
2022-09-29T14:22:36.015Z,2.40
2022-09-29T14:25:40.839Z,2.57
2022-09-29T14:28:43.995Z,2.55
2022-09-29T14:31:47.147Z,2.17
2022-09-29T14:34:53.627Z,2.20
2022-09-29T14:38:06.378Z,2.50
2022-09-29T14:41:08.352Z,2.63
2022-09-29T14:44:53.293Z,3.28
2022-09-29T14:48:23.998Z,2.20
2022-09-29T14:51:49.736Z,2.47
2022-09-29T14:58:14.642Z,2.00
2022-09-29T15:01:42.824Z,1.52
2022-09-29T15:04:45.465Z,1.73
2022-09-29T15:07:47.535Z,1.95
2022-09-29T15:10:49.499Z,1.47
2022-09-29T15:13:51.536Z,1.67
2022-09-29T15:16:59.592Z,1.95
2022-09-29T15:20:20.589Z,1.92
2022-09-29T15:23:42.826Z,1.77
2022-09-29T15:26:46.594Z,1.90
2022-09-29T15:29:49.409Z,2.87
2022-09-29T15:32:51.961Z,1.98
2022-09-29T15:35:58.837Z,2.03
2022-09-29T15:39:02.521Z,2.00
2022-09-29T15:42:15.033Z,2.43
2022-09-29T15:45:19.931Z,1.97
2022-09-29T15:48:21.896Z,2.15
2022-09-29T15:51:23.921Z,3.40
2022-09-29T15:54:28.279Z,3.03
2022-09-29T15:57:48.970Z,4.10
2022-09-29T16:00:51.304Z,4.50
2022-09-29T16:03:57.683Z,5.07
2022-09-29T16:06:59.804Z,4.25
2022-09-29T16:10:21.993Z,4.93
2022-09-29T16:13:27.452Z,5.00
2022-09-29T16:16:34.592Z,4.33
2022-09-29T16:19:37.108Z,3.90
2022-09-29T16:22:39.164Z,4.60
2022-09-29T16:25:41.173Z,6.72
2022-09-29T16:29:00.176Z,7.50
2022-09-29T16:32:22.151Z,7.43
2022-09-29T16:35:42.091Z,10.80
2022-09-29T16:38:47.809Z,14.85
2022-09-29T16:41:54.062Z,26.77
2022-09-29T16:44:56.446Z,24.27
2022-09-29T16:47:59.732Z,23.43
2022-09-29T16:51:08.343Z,20.63
2022-09-29T16:54:16.574Z,16.63
2022-09-29T16:57:24.027Z,17.50
2022-09-29T17:00:26.163Z,16.07
2022-09-29T17:03:29.892Z,15.87
2022-09-29T17:06:31.869Z,15.52
2022-09-29T17:09:34.032Z,13.40
2022-09-29T17:12:36.082Z,12.90
2022-09-29T17:15:38.926Z,12.50
2022-09-29T17:18:41.080Z,11.80
2022-09-29T17:21:43.099Z,13.40
2022-09-29T17:24:45.042Z,13.02
2022-09-29T17:28:05.889Z,12.88
2022-09-29T17:31:10.015Z,15.53
2022-09-29T17:34:12.045Z,15.03
2022-09-29T17:37:19.483Z,18.95
2022-09-29T17:40:25.909Z,22.20
2022-09-29T17:43:28.629Z,20.73
2022-09-29T17:46:30.812Z,29.07
2022-09-29T17:49:35.567Z,41.27
2022-09-29T17:52:38.574Z,51.00
2022-09-29T17:55:41.592Z,44.53
2022-09-29T17:58:43.564Z,39.95
2022-09-29T18:01:45.656Z,58.57
2022-09-29T18:04:49.463Z,71.40
2022-09-29T18:07:51.891Z,65.28
2022-09-29T18:10:55.066Z,65.55
2022-09-29T18:13:57.082Z,59.78
2022-09-29T18:16:59.095Z,56.17
2022-09-29T18:20:03.157Z,60.00
2022-09-29T18:23:05.311Z,61.55
2022-09-29T18:26:07.231Z,76.15
2022-09-29T18:29:19.149Z,58.88
2022-09-29T18:32:21.100Z,58.90
2022-09-29T18:35:24.412Z,70.00
2022-09-29T18:38:26.405Z,62.08
2022-09-29T18:41:28.435Z,65.40
2022-09-29T18:44:33.440Z,51.80
2022-09-29T18:47:36.015Z,89.30
2022-09-29T18:50:43.196Z,91.30
2022-09-29T18:53:45.119Z,84.72
2022-09-29T18:56:48.808Z,92.68
2022-09-29T18:59:53.321Z,87.15
2022-09-29T19:02:56.020Z,80.53
2022-09-29T19:05:58.141Z,68.40
2022-09-29T19:09:00.535Z,69.47
2022-09-29T19:12:02.499Z,71.57
2022-09-29T19:15:05.300Z,77.65
2022-09-29T19:18:07.816Z,73.53
2022-09-29T19:21:12.082Z,75.63
2022-09-29T19:24:14.025Z,65.85
2022-09-29T19:27:16.069Z,74.13
2022-09-29T19:30:19.617Z,78.93
2022-09-29T19:33:22.307Z,78.97
2022-09-29T19:36:24.487Z,84.57
2022-09-29T19:39:28.926Z,75.05
2022-09-29T19:42:30.861Z,72.13
2022-09-29T19:45:37.581Z,74.88
2022-09-29T19:48:39.721Z,77.73
2022-09-29T19:51:52.444Z,79.43
2022-09-29T19:54:54.367Z,81.13
2022-09-29T19:57:56.268Z,80.70
2022-09-29T20:00:59.943Z,76.32
2022-09-29T20:04:01.948Z,74.20
2022-09-29T20:07:04.298Z,72.18
2022-09-29T20:10:08.123Z,72.90
2022-09-29T20:13:10.551Z,74.00
2022-09-29T20:16:12.567Z,68.87
2022-09-29T20:19:15.724Z,72.50
2022-09-29T20:22:20.079Z,89.55
2022-09-29T20:25:22.040Z,85.78
2022-09-29T20:28:24.205Z,81.85
2022-09-29T20:31:26.243Z,83.10
2022-09-29T20:34:28.202Z,90.17
2022-09-29T20:37:30.147Z,89.03
2022-09-29T20:40:32.098Z,83.70
2022-09-29T20:43:34.774Z,91.50
2022-09-29T20:46:36.870Z,89.33
2022-09-29T20:49:39.232Z,97.45
2022-09-29T20:52:41.219Z,101.22
2022-09-29T20:55:43.220Z,100.90
2022-09-29T20:58:46.145Z,95.60
2022-09-29T21:01:48.946Z,91.67
2022-09-29T21:04:51.059Z,86.30
2022-09-29T21:07:54.440Z,88.90
2022-09-29T21:11:03.317Z,84.30
2022-09-29T21:14:09.536Z,80.03
2022-09-29T21:17:11.487Z,79.07
2022-09-29T21:20:13.555Z,85.07
2022-09-29T21:23:15.467Z,74.78
2022-09-29T21:26:18.884Z,62.60
2022-09-29T21:29:20.939Z,59.05
2022-09-29T21:32:23.027Z,60.90
2022-09-29T21:35:25.002Z,57.65
2022-09-29T21:38:30.203Z,64.60
2022-09-29T21:41:33.379Z,51.53
2022-09-29T21:44:35.351Z,37.25
2022-09-29T21:47:55.778Z,33.08
2022-09-29T21:51:17.158Z,32.45
2022-09-29T21:54:20.352Z,34.17
2022-09-29T21:57:22.568Z,39.10
2022-09-29T22:00:24.568Z,34.83
2022-09-29T22:03:28.821Z,29.35
2022-09-29T22:06:32.271Z,35.83
2022-09-29T22:09:34.298Z,38.83
2022-09-29T22:12:36.275Z,41.08
2022-09-29T22:15:38.254Z,35.25
2022-09-29T22:18:42.120Z,30.33
2022-09-29T22:21:44.314Z,26.35
2022-09-29T22:24:46.247Z,29.17
2022-09-29T22:27:48.423Z,29.98
2022-09-29T22:30:50.838Z,31.70
2022-09-29T22:33:53.752Z,31.67
2022-09-29T22:36:55.702Z,27.33
2022-09-29T22:39:57.604Z,28.25
2022-09-29T22:43:00.223Z,25.97
2022-09-29T22:46:02.234Z,23.83
2022-09-29T22:49:04.343Z,23.75
2022-09-29T22:52:06.307Z,30.65
2022-09-29T22:55:08.448Z,33.63
2022-09-29T22:58:10.907Z,32.13
2022-09-29T23:01:15.297Z,27.25
2022-09-29T23:04:17.305Z,20.33
2022-09-29T23:07:19.255Z,16.60
2022-09-29T23:10:21.204Z,16.10
2022-09-29T23:13:23.832Z,15.93
2022-09-29T23:16:26.072Z,16.30
2022-09-29T23:19:28.089Z,16.30
2022-09-29T23:22:30.218Z,16.35
2022-09-29T23:25:33.223Z,15.95
2022-09-29T23:28:35.161Z,16.23
2022-09-29T23:31:38.139Z,15.60
2022-09-29T23:34:40.187Z,15.52
2022-09-29T23:38:00.673Z,12.85
2022-09-29T23:41:02.600Z,14.35
2022-09-29T23:44:05.372Z,12.10
2022-09-29T23:47:08.206Z,12.75
2022-09-29T23:50:10.772Z,12.85
2022-09-29T23:53:12.815Z,11.35
2022-09-29T23:56:14.781Z,13.05
2022-09-29T23:59:17.306Z,14.33
